Portada
METAR-TAF:

METAR-TAF

Aeroports :

Victòria, Mahé, Seychelles

latitud: 04-40S, longitud: 055-31E, altitud: 3 m

Observació

L'informe es va fer fa 59 minuts, a les 06:00 UTC
Vent 15 kt del Sud-Est
Temperatura 28°C
Humitat 79%
Pressió 1012 hPa
Visibilitat 10 km o més
Núvols disperses a una alçada de 2000 ft

METAR: FSIA 150600Z 13015KT 9999 SCT020 28/24 Q1012 NOSIG

Hora: 10:59 (06:59 UTC)

Pronòstic

L'informe es va fer fa 1 hora i 56 minuts, a les 05:03 UTC
Pronòstic vàlid del 15 a les 06 UTC al 16 a les 06 UTC
Vent 15 kt del Sud-Est amb ràfegues de 25 kt
Visibilitat 10 km o més
Núvols disperses a una alçada de 2000 ft
Probabilitat 40% :
Temporalment
l' 15 a les 06 UTC al 15 a les 12 UTC
Visibilitat: 8000 m
Escasses núvols a una alçada de 1200 ft
Cel ennuvolat a una alçada de 1800 ft
xàfecs de pluja

TAF: FSIA 150503Z 1506/1606 13015G25KT 9999 SCT020 PROB40 TEMPO 1506/1512 8000 -SHRA FEW012 BKN018

Observacions i pronòstics meteorològics de més de 4000 aeroports (METAR i TAF).

Les estacions disponibles són els punts grocs i vermells al mapa.

Posi el ratolí al punt desitjat per veure el nom de l'estació.

Feu clic per veure les observacions i els pronòstics meteorològics.

Per canviar el mapa: feu clic els botons verds amb una creu de color negre per apropar; al botó verd amb un guió per allunyar la imatge; o en les fletxes verdes per a mapes adjacents.


METAR-TAF: